Time;durP1;ratioP1;P1;durP2;ratioP2;P2;SDS_P1;SDS_P2;PMS_P1;PMS_P2;Temp;Humidity;BMP_temperature;BMP_pressure;BME280_temperature;BME280_humidity;BME280_pressure;Samples;Min_cycle;Max_cycle;Signal;HPM_P1;HPM_P2
2023/06/13 00:01:48;;;;;;;7.43;6.73;;;20.00;36.00;;;;;;5073136;28;20181;-59
2023/06/13 00:04:21;;;;;;;6.23;5.70;;;20.10;36.10;;;;;;5073016;28;20534;-57
2023/06/13 00:06:48;;;;;;;10.63;5.95;;;20.10;35.90;;;;;;5072889;28;20403;-56
2023/06/13 00:09:15;;;;;;;7.32;6.60;;;20.10;36.20;;;;;;5071430;28;20218;-58
2023/06/13 00:11:40;;;;;;;10.52;8.00;;;20.00;36.30;;;;;;5072889;28;20233;-56
2023/06/13 00:14:06;;;;;;;8.30;6.77;;;20.00;36.00;;;;;;5072300;28;20184;-56
2023/06/13 00:16:32;;;;;;;9.00;7.63;;;20.00;36.00;;;;;;5072882;28;20271;-57
2023/06/13 00:18:58;;;;;;;11.33;8.10;;;19.90;36.20;;;;;;5072524;28;20670;-55
2023/06/13 00:21:24;;;;;;;11.98;10.88;;;19.90;36.10;;;;;;5072454;28;20176;-55
2023/06/13 00:23:50;;;;;;;12.43;10.93;;;19.80;36.30;;;;;;5072572;28;20165;-57
2023/06/13 00:26:15;;;;;;;13.50;12.20;;;19.70;36.30;;;;;;5072779;28;20175;-57
2023/06/13 00:28:41;;;;;;;11.43;10.47;;;19.60;36.10;;;;;;5059741;28;20327;-55
2023/06/13 00:31:07;;;;;;;13.90;12.60;;;19.70;36.40;;;;;;5052352;28;20165;-55
2023/06/13 00:33:33;;;;;;;12.17;10.93;;;19.60;36.60;;;;;;5052557;28;20181;-59
2023/06/13 00:35:59;;;;;;;11.27;10.18;;;19.70;36.70;;;;;;5052301;28;20195;-57
2023/06/13 00:38:27;;;;;;;12.33;11.10;;;19.50;36.50;;;;;;5052230;28;20201;-59
2023/06/13 00:40:52;;;;;;;10.20;9.00;;;19.40;36.60;;;;;;5052172;28;20819;-57
2023/06/13 00:43:18;;;;;;;11.13;9.77;;;19.40;36.80;;;;;;5052678;28;20618;-55
2023/06/13 00:45:44;;;;;;;9.40;8.60;;;19.40;36.90;;;;;;5051097;28;20169;-58
2023/06/13 00:48:10;;;;;;;8.70;8.00;;;19.50;37.60;;;;;;5050970;28;20308;-57
2023/06/13 00:50:40;;;;;;;11.38;8.77;;;19.40;37.00;;;;;;5066556;28;20222;-57
2023/06/13 00:53:16;;;;;;;9.27;8.38;;;19.30;37.00;;;;;;5072086;28;20644;-57
2023/06/13 00:55:42;;;;;;;9.65;8.70;;;19.30;37.30;;;;;;5072219;28;20651;-58
2023/06/13 00:58:10;;;;;;;9.05;8.20;;;19.30;37.20;;;;;;5072024;28;20228;-56
2023/06/13 01:00:37;;;;;;;8.55;7.18;;;19.30;37.30;;;;;;5071922;28;20176;-56
2023/06/13 01:03:07;;;;;;;8.02;7.25;;;19.30;37.30;;;;;;5071891;28;20173;-58
2023/06/13 01:05:34;;;;;;;8.73;7.93;;;19.30;37.50;;;;;;5071390;28;20248;-54
2023/06/13 01:08:02;;;;;;;8.75;7.82;;;19.30;37.50;;;;;;5069883;28;20200;-58
2023/06/13 01:10:30;;;;;;;8.88;7.30;;;19.20;38.10;;;;;;5071843;28;20175;-58
2023/06/13 01:13:09;;;;;;;8.25;7.55;;;19.10;37.40;;;;;;5072008;28;20196;-55
2023/06/13 01:15:40;;;;;;;8.40;7.57;;;19.10;37.30;;;;;;5071935;28;20176;-55
2023/06/13 01:18:10;;;;;;;7.80;6.93;;;19.10;37.30;;;;;;5072097;28;20235;-57
2023/06/13 01:20:38;;;;;;;8.52;7.60;;;19.10;37.60;;;;;;5067450;28;20266;-55
2023/06/13 01:23:25;;;;;;;9.02;8.10;;;18.90;37.50;;;;;;5071760;28;20172;-58
2023/06/13 01:26:06;;;;;;;8.40;7.35;;;18.90;37.50;;;;;;5074242;28;20183;-56
2023/06/13 01:28:33;;;;;;;10.32;6.15;;;18.80;37.70;;;;;;5076034;28;20196;-57
2023/06/13 01:31:06;;;;;;;7.88;7.00;;;18.70;37.60;;;;;;5074287;28;20169;-55
2023/06/13 01:33:33;;;;;;;7.93;6.68;;;18.80;37.90;;;;;;5076112;28;20169;-58
2023/06/13 01:35:59;;;;;;;10.98;7.03;;;18.80;37.70;;;;;;5075911;28;20192;-57
2023/06/13 01:38:25;;;;;;;6.93;6.30;;;18.70;37.80;;;;;;5075577;28;20238;-59
2023/06/13 01:40:51;;;;;;;6.93;6.32;;;18.80;37.70;;;;;;5074387;28;20919;-58
2023/06/13 01:43:17;;;;;;;8.30;7.60;;;18.70;37.70;;;;;;5075755;28;20290;-56
2023/06/13 01:45:43;;;;;;;7.80;7.10;;;18.70;37.80;;;;;;5075611;28;20415;-57
2023/06/13 01:48:36;;;;;;;8.45;7.53;;;18.70;37.80;;;;;;5075597;28;20491;-58
2023/06/13 01:51:36;;;;;;;7.65;6.97;;;18.60;38.00;;;;;;5075171;28;20180;-56
2023/06/13 01:54:06;;;;;;;7.15;6.57;;;18.60;38.00;;;;;;5075203;28;20303;-59
2023/06/13 01:56:33;;;;;;;7.35;6.65;;;18.50;38.00;;;;;;5075475;28;20188;-57
2023/06/13 01:59:08;;;;;;;11.82;7.00;;;18.50;38.00;;;;;;5075266;28;20208;-56
2023/06/13 02:01:38;;;;;;;7.45;6.47;;;18.40;38.20;;;;;;5075189;28;20180;-58
2023/06/13 02:04:05;;;;;;;7.85;6.90;;;18.40;38.20;;;;;;5075173;28;20180;-56
2023/06/13 02:06:32;;;;;;;6.95;6.32;;;18.40;38.10;;;;;;5075066;28;20184;-57
2023/06/13 02:08:58;;;;;;;13.32;7.10;;;18.40;38.20;;;;;;5075101;28;20283;-58
2023/06/13 02:11:25;;;;;;;7.75;6.18;;;18.40;38.30;;;;;;5074915;28;20179;-57
2023/06/13 02:13:51;;;;;;;6.40;5.80;;;18.40;38.30;;;;;;5075037;28;20426;-57
2023/06/13 02:16:18;;;;;;;7.27;6.60;;;18.40;38.10;;;;;;5075001;28;20268;-59
2023/06/13 02:18:46;;;;;;;8.55;6.85;;;18.40;38.40;;;;;;5074818;28;20988;-57
2023/06/13 02:21:12;;;;;;;6.53;5.93;;;18.30;38.30;;;;;;5074675;28;20222;-56
2023/06/13 02:23:38;;;;;;;7.35;6.75;;;18.30;38.40;;;;;;5074915;28;20168;-59
2023/06/13 02:26:06;;;;;;;8.70;6.50;;;18.30;38.20;;;;;;5074926;28;20227;-60
2023/06/13 02:28:32;;;;;;;6.47;5.97;;;18.30;38.40;;;;;;5074688;28;20253;-57
2023/06/13 02:30:58;;;;;;;10.97;8.00;;;18.30;38.50;;;;;;5073383;28;20173;-56
2023/06/13 02:33:24;;;;;;;7.80;7.00;;;18.20;38.30;;;;;;5074697;28;20215;-59
2023/06/13 02:35:50;;;;;;;6.65;6.00;;;18.20;38.60;;;;;;5074228;28;20184;-57
2023/06/13 02:38:18;;;;;;;8.23;6.78;;;18.20;38.60;;;;;;5074499;28;20200;-56
2023/06/13 02:40:44;;;;;;;9.25;6.53;;;18.10;38.60;;;;;;5074393;28;20652;-58
2023/06/13 02:43:10;;;;;;;6.90;6.20;;;18.10;38.70;;;;;;5074693;28;20184;-56
2023/06/13 02:45:36;;;;;;;7.40;6.70;;;18.10;38.60;;;;;;5074761;28;20818;-55
2023/06/13 02:48:02;;;;;;;8.80;7.03;;;18.10;38.60;;;;;;5074386;28;20559;-55
2023/06/13 02:50:27;;;;;;;8.88;7.15;;;18.00;38.50;;;;;;5074105;28;20437;-59
2023/06/13 02:52:53;;;;;;;7.53;6.67;;;18.10;38.60;;;;;;5074561;28;20172;-57
2023/06/13 02:55:20;;;;;;;7.23;6.53;;;18.10;38.80;;;;;;5074398;28;20238;-56
2023/06/13 02:57:46;;;;;;;8.77;7.85;;;18.00;38.80;;;;;;5074128;28;20201;-57
2023/06/13 03:00:15;;;;;;;6.80;6.20;;;18.00;38.90;;;;;;5074163;28;20173;-56
2023/06/13 03:02:40;;;;;;;7.47;6.70;;;17.90;38.80;;;;;;5074172;28;20215;-55
2023/06/13 03:05:14;;;;;;;7.93;7.23;;;17.80;39.00;;;;;;5074221;28;20169;-55
2023/06/13 03:07:42;;;;;;;7.60;6.85;;;17.80;38.90;;;;;;5074249;28;20220;-57
2023/06/13 03:10:09;;;;;;;7.32;6.53;;;17.80;39.00;;;;;;5073868;28;20183;-60
2023/06/13 03:12:35;;;;;;;8.23;7.43;;;17.80;39.20;;;;;;5073798;28;20192;-58
2023/06/13 03:15:01;;;;;;;8.83;7.10;;;17.70;39.20;;;;;;5074273;28;20192;-56
2023/06/13 03:17:28;;;;;;;7.77;6.33;;;17.70;39.20;;;;;;5073834;28;20207;-56
2023/06/13 03:19:53;;;;;;;7.50;6.80;;;17.70;39.10;;;;;;5073687;28;20456;-59
2023/06/13 03:22:19;;;;;;;7.83;7.07;;;17.70;39.20;;;;;;5055634;28;20185;-58
2023/06/13 03:24:45;;;;;;;7.33;6.67;;;17.60;39.00;;;;;;5053820;28;20250;-56
2023/06/13 03:27:14;;;;;;;8.00;7.22;;;17.60;39.00;;;;;;5053786;28;20245;-55
2023/06/13 03:29:41;;;;;;;6.80;6.10;;;17.60;39.10;;;;;;5053484;28;20165;-58
2023/06/13 03:32:08;;;;;;;7.60;6.90;;;17.50;38.90;;;;;;5053774;28;20181;-55
2023/06/13 03:34:38;;;;;;;7.38;6.68;;;17.50;39.10;;;;;;5053481;28;20173;-58
2023/06/13 03:37:07;;;;;;;7.50;6.80;;;17.50;39.00;;;;;;5053397;28;20169;-59
2023/06/13 03:39:33;;;;;;;6.80;6.20;;;17.60;39.00;;;;;;5072912;28;20177;-57
2023/06/13 03:42:00;;;;;;;7.37;6.40;;;17.50;39.20;;;;;;5073463;28;20567;-56
2023/06/13 03:44:27;;;;;;;10.10;8.30;;;17.50;39.40;;;;;;5073402;28;20403;-58
2023/06/13 03:46:55;;;;;;;8.75;7.00;;;17.50;39.50;;;;;;5073033;28;20177;-60
2023/06/13 03:49:22;;;;;;;9.02;6.57;;;17.40;39.40;;;;;;5072490;28;20275;-54
2023/06/13 03:51:48;;;;;;;8.90;7.40;;;17.50;39.40;;;;;;5073332;28;20179;-56
2023/06/13 03:54:14;;;;;;;8.50;7.67;;;17.50;39.50;;;;;;5073109;28;20267;-57
2023/06/13 03:56:39;;;;;;;9.77;6.40;;;17.50;40.50;;;;;;5073386;28;20795;-56
2023/06/13 03:59:05;;;;;;;7.30;6.70;;;17.50;40.20;;;;;;5056684;28;20201;-56
2023/06/13 04:01:31;;;;;;;7.87;7.17;;;17.50;40.80;;;;;;5052991;28;20169;-58
2023/06/13 04:03:57;;;;;;;9.10;6.83;;;17.60;40.20;;;;;;5053145;28;20173;-58
2023/06/13 04:06:23;;;;;;;8.00;7.20;;;17.60;40.20;;;;;;5053021;28;20174;-57
2023/06/13 04:08:49;;;;;;;7.43;6.57;;;17.60;40.30;;;;;;5052769;28;20197;-56
2023/06/13 04:11:15;;;;;;;8.53;7.63;;;17.70;39.70;;;;;;5052657;28;20419;-57
2023/06/13 04:13:43;;;;;;;7.67;6.77;;;17.80;39.80;;;;;;5053016;28;20535;-55
2023/06/13 04:16:09;;;;;;;7.68;7.05;;;17.80;39.70;;;;;;5072000;28;20168;-59
2023/06/13 04:18:37;;;;;;;7.80;7.10;;;17.80;39.80;;;;;;5072770;28;20215;-57
2023/06/13 04:21:06;;;;;;;11.13;6.88;;;17.90;39.80;;;;;;5071055;28;20172;-56
2023/06/13 04:23:33;;;;;;;6.72;6.05;;;17.90;39.60;;;;;;5072586;28;20267;-55
2023/06/13 04:26:05;;;;;;;8.68;7.25;;;18.00;39.50;;;;;;5072507;28;20681;-58
2023/06/13 04:28:32;;;;;;;7.97;6.47;;;18.00;39.40;;;;;;5072422;28;20204;-56
2023/06/13 04:31:00;;;;;;;7.35;6.65;;;18.00;39.80;;;;;;5072331;28;20682;-56
2023/06/13 04:33:26;;;;;;;7.55;6.63;;;18.00;40.00;;;;;;5072642;28;20676;-58
2023/06/13 04:35:54;;;;;;;12.38;9.85;;;18.00;39.80;;;;;;5072494;28;20272;-58
2023/06/13 04:38:21;;;;;;;8.35;7.05;;;18.00;40.00;;;;;;5072376;28;20550;-57
2023/06/13 04:40:47;;;;;;;8.45;7.05;;;18.10;39.90;;;;;;5072265;28;20168;-55
2023/06/13 04:43:17;;;;;;;7.45;6.80;;;18.10;40.00;;;;;;5072360;28;20667;-59
2023/06/13 04:45:43;;;;;;;11.38;7.65;;;18.20;40.20;;;;;;5072220;28;20179;-56
2023/06/13 04:48:13;;;;;;;8.95;8.10;;;18.20;40.30;;;;;;5065341;28;20737;-56
2023/06/13 04:50:44;;;;;;;9.15;8.45;;;18.30;40.50;;;;;;5071865;28;20186;-59
2023/06/13 04:53:11;;;;;;;8.95;7.03;;;18.40;40.60;;;;;;5072323;28;20168;-55
2023/06/13 04:55:40;;;;;;;8.43;7.55;;;18.50;40.40;;;;;;5072236;28;20189;-55
2023/06/13 04:58:06;;;;;;;8.90;7.05;;;18.50;40.40;;;;;;5072182;28;20200;-59
2023/06/13 05:00:32;;;;;;;10.07;7.32;;;18.60;39.80;;;;;;5071619;28;20211;-58
2023/06/13 05:03:00;;;;;;;8.60;7.57;;;18.60;39.80;;;;;;5072066;28;20661;-55
2023/06/13 05:05:27;;;;;;;8.30;7.40;;;18.70;39.90;;;;;;5072091;28;21009;-56
2023/06/13 05:07:59;;;;;;;7.80;6.82;;;18.80;40.30;;;;;;5072158;28;20235;-58
2023/06/13 05:10:25;;;;;;;7.15;6.45;;;18.90;39.60;;;;;;5071892;28;20196;-55
2023/06/13 05:12:52;;;;;;;7.70;7.00;;;19.00;39.70;;;;;;5071759;28;20552;-56
2023/06/13 05:15:19;;;;;;;10.52;7.47;;;19.10;39.10;;;;;;5071907;28;20647;-61
2023/06/13 05:17:45;;;;;;;7.45;6.75;;;19.20;39.10;;;;;;5071722;28;20690;-56
2023/06/13 05:20:12;;;;;;;6.82;6.13;;;19.40;38.90;;;;;;5071744;28;20165;-56
2023/06/13 05:22:41;;;;;;;7.45;6.80;;;19.40;38.20;;;;;;5070480;28;20672;-60
2023/06/13 05:25:12;;;;;;;8.13;7.25;;;19.60;38.00;;;;;;5071595;28;20264;-57
2023/06/13 05:27:38;;;;;;;8.32;7.55;;;19.70;38.10;;;;;;5066321;28;20743;-57
2023/06/13 05:30:11;;;;;;;7.20;6.50;;;19.80;38.00;;;;;;5069889;28;20169;-59
2023/06/13 05:32:36;;;;;;;9.25;8.35;;;19.90;38.00;;;;;;5071885;28;20419;-56
2023/06/13 05:35:03;;;;;;;11.40;6.90;;;20.00;37.80;;;;;;5071739;28;20173;-56
2023/06/13 05:37:29;;;;;;;8.07;7.32;;;20.10;37.70;;;;;;5071623;28;20589;-57
2023/06/13 05:39:55;;;;;;;7.93;6.93;;;20.10;37.50;;;;;;5071636;28;20181;-59
2023/06/13 05:42:21;;;;;;;8.40;7.55;;;20.10;36.60;;;;;;5071735;28;20172;-55
2023/06/13 05:44:47;;;;;;;8.75;7.75;;;20.10;36.80;;;;;;5071953;28;20199;-57
2023/06/13 05:47:13;;;;;;;8.20;6.83;;;20.10;37.00;;;;;;5071634;28;20672;-60
2023/06/13 05:49:39;;;;;;;9.32;8.45;;;20.20;37.00;;;;;;5071475;28;20431;-57
2023/06/13 05:52:06;;;;;;;8.30;7.50;;;20.20;37.00;;;;;;5067205;28;20201;-59
2023/06/13 05:54:32;;;;;;;8.00;7.20;;;20.30;36.20;;;;;;5071570;28;20660;-57
2023/06/13 05:57:00;;;;;;;9.85;7.35;;;20.30;36.40;;;;;;5071507;28;20173;-57
2023/06/13 05:59:26;;;;;;;7.95;7.15;;;20.40;36.20;;;;;;5071305;28;20620;-59
2023/06/13 06:01:52;;;;;;;9.13;6.60;;;20.60;36.00;;;;;;5071518;28;20180;-56
2023/06/13 06:04:18;;;;;;;7.07;5.90;;;20.70;35.40;;;;;;5071535;28;20423;-55
2023/06/13 06:06:44;;;;;;;8.33;7.20;;;20.70;35.80;;;;;;5071534;28;20193;-57
2023/06/13 06:09:10;;;;;;;12.93;6.20;;;20.80;35.40;;;;;;5071294;28;20405;-55
2023/06/13 06:11:36;;;;;;;8.55;6.78;;;20.90;35.30;;;;;;5072858;28;20591;-55
2023/06/13 06:14:02;;;;;;;8.10;7.27;;;21.00;35.40;;;;;;5075317;28;20233;-57
2023/06/13 06:16:29;;;;;;;7.47;6.73;;;21.10;34.90;;;;;;5075117;28;20398;-58
2023/06/13 06:18:55;;;;;;;7.28;6.57;;;21.20;34.40;;;;;;5074935;28;20819;-57
2023/06/13 06:21:21;;;;;;;6.97;6.20;;;21.20;33.90;;;;;;5075091;28;20176;-57
2023/06/13 06:23:46;;;;;;;7.73;6.10;;;21.30;34.30;;;;;;5075274;28;20255;-57
2023/06/13 06:26:12;;;;;;;7.77;6.93;;;21.30;34.60;;;;;;5074846;28;20168;-55
2023/06/13 06:28:38;;;;;;;7.27;6.57;;;21.40;34.00;;;;;;5074774;28;20549;-57
2023/06/13 06:31:05;;;;;;;9.70;7.10;;;21.40;33.90;;;;;;5074768;28;20310;-56
2023/06/13 06:33:31;;;;;;;7.00;6.30;;;21.40;33.70;;;;;;5070002;28;20422;-57
2023/06/13 06:35:57;;;;;;;7.77;6.97;;;21.50;33.70;;;;;;5074777;28;20172;-56
2023/06/13 06:38:23;;;;;;;5.73;5.23;;;21.60;33.80;;;;;;5074409;28;20813;-55
2023/06/13 06:40:49;;;;;;;7.10;6.13;;;21.80;33.40;;;;;;5074509;28;20165;-56
2023/06/13 06:43:14;;;;;;;6.00;5.40;;;21.80;33.10;;;;;;5075074;28;20407;-58
2023/06/13 06:45:40;;;;;;;7.80;6.87;;;22.00;33.00;;;;;;5074674;28;20399;-55
2023/06/13 06:48:06;;;;;;;9.60;5.13;;;22.10;32.50;;;;;;5074422;28;20513;-56
2023/06/13 06:50:32;;;;;;;7.43;6.73;;;22.10;32.50;;;;;;5074366;28;20203;-59
2023/06/13 06:52:58;;;;;;;8.30;6.93;;;22.10;31.70;;;;;;5074656;28;20169;-56
2023/06/13 06:55:23;;;;;;;7.33;6.63;;;22.30;32.20;;;;;;5074384;28;20608;-55
2023/06/13 06:57:49;;;;;;;7.03;6.33;;;22.40;32.30;;;;;;5070541;28;20279;-59
2023/06/13 07:00:16;;;;;;;6.70;6.00;;;22.50;32.70;;;;;;5054165;28;20249;-56
2023/06/13 07:02:43;;;;;;;7.90;5.37;;;22.70;32.80;;;;;;5054326;28;20185;-55
2023/06/13 07:05:09;;;;;;;6.27;5.70;;;22.80;31.70;;;;;;5054283;28;20773;-58
2023/06/13 07:07:35;;;;;;;6.80;6.10;;;22.90;31.80;;;;;;5054129;28;20419;-55
2023/06/13 07:10:05;;;;;;;12.10;6.63;;;23.00;30.80;;;;;;5053780;28;20407;-55
2023/06/13 07:12:32;;;;;;;8.23;6.77;;;23.10;30.60;;;;;;5053973;28;20434;-57
2023/06/13 07:14:58;;;;;;;6.70;5.80;;;23.20;31.70;;;;;;5054271;28;20419;-57
2023/06/13 07:17:24;;;;;;;7.70;5.80;;;23.30;31.90;;;;;;5053757;28;20886;-55
2023/06/13 07:19:50;;;;;;;8.03;5.27;;;23.50;32.20;;;;;;5070838;28;20439;-57
2023/06/13 07:22:15;;;;;;;6.77;6.17;;;23.60;30.70;;;;;;5073789;28;20172;-55
2023/06/13 07:24:41;;;;;;;10.33;5.90;;;23.80;31.30;;;;;;5073900;28;20403;-56
2023/06/13 07:27:07;;;;;;;6.50;5.90;;;23.90;31.30;;;;;;5074046;28;20221;-58
2023/06/13 07:29:33;;;;;;;10.03;5.97;;;24.00;30.40;;;;;;5073498;28;20180;-58
2023/06/13 07:32:00;;;;;;;10.77;6.77;;;24.00;30.00;;;;;;5073787;28;20403;-56
2023/06/13 07:34:26;;;;;;;14.30;5.87;;;24.00;28.80;;;;;;5057855;28;20918;-54
2023/06/13 07:36:53;;;;;;;7.97;6.03;;;24.00;28.80;;;;;;5073510;28;20427;-58
2023/06/13 07:39:20;;;;;;;6.17;4.80;;;24.10;30.00;;;;;;5073374;28;20860;-55
2023/06/13 07:41:48;;;;;;;7.33;5.33;;;24.20;29.80;;;;;;5073682;28;20402;-57
2023/06/13 07:44:14;;;;;;;9.03;6.00;;;24.30;29.10;;;;;;5073730;28;20414;-58
2023/06/13 07:46:40;;;;;;;6.20;5.03;;;24.30;28.30;;;;;;5073411;28;20402;-54
2023/06/13 07:49:06;;;;;;;6.47;5.83;;;24.30;29.10;;;;;;5073271;28;20435;-55
2023/06/13 07:51:32;;;;;;;6.60;5.80;;;24.40;27.60;;;;;;5073048;28;20759;-58
2023/06/13 07:53:58;;;;;;;8.20;5.13;;;24.40;28.10;;;;;;5073309;28;20165;-55
2023/06/13 07:56:24;;;;;;;6.43;5.00;;;24.50;29.20;;;;;;5073166;28;20411;-56
2023/06/13 07:58:50;;;;;;;6.90;5.03;;;24.60;27.70;;;;;;5072900;28;20533;-58
2023/06/13 08:01:16;;;;;;;9.60;5.37;;;24.70;27.10;;;;;;5072963;28;20175;-56
2023/06/13 08:03:44;;;;;;;5.43;4.80;;;24.80;28.10;;;;;;5073208;28;20407;-56
2023/06/13 08:06:10;;;;;;;6.50;5.90;;;25.00;28.30;;;;;;5072946;28;20544;-59
2023/06/13 08:08:35;;;;;;;5.90;5.30;;;25.20;28.60;;;;;;5072861;28;20518;-56
2023/06/13 08:11:01;;;;;;;7.80;4.60;;;25.20;28.20;;;;;;5073087;28;20407;-58
2023/06/13 08:13:27;;;;;;;9.90;5.70;;;25.30;27.50;;;;;;5072825;28;20184;-55
2023/06/13 08:15:53;;;;;;;6.30;5.37;;;25.30;26.30;;;;;;5072931;28;20184;-56
2023/06/13 08:18:18;;;;;;;8.00;6.07;;;25.40;27.10;;;;;;5072634;28;20200;-58
2023/06/13 08:20:48;;;;;;;7.87;4.83;;;25.50;27.00;;;;;;5072510;28;20201;-55
2023/06/13 08:23:14;;;;;;;8.13;5.30;;;25.60;25.30;;;;;;5072611;28;20399;-56
2023/06/13 08:25:41;;;;;;;7.20;4.67;;;25.60;26.60;;;;;;5072643;28;20409;-58
2023/06/13 08:28:08;;;;;;;7.07;4.90;;;25.80;26.10;;;;;;5072668;28;20427;-56
2023/06/13 08:30:34;;;;;;;8.43;5.00;;;25.80;26.50;;;;;;5072399;28;20405;-55
2023/06/13 08:33:01;;;;;;;8.83;5.20;;;26.00;25.40;;;;;;5072572;28;20489;-58
2023/06/13 08:35:27;;;;;;;9.23;4.87;;;26.10;24.60;;;;;;5072017;28;20403;-56
2023/06/13 08:37:53;;;;;;;10.40;5.30;;;26.20;24.80;;;;;;5072400;28;20530;-56
2023/06/13 08:40:19;;;;;;;9.13;5.70;;;26.30;25.10;;;;;;5071038;28;20955;-58
2023/06/13 08:42:46;;;;;;;6.63;4.77;;;26.50;25.30;;;;;;5072408;28;20540;-56
2023/06/13 08:45:12;;;;;;;7.03;4.43;;;26.50;24.40;;;;;;5072314;28;21042;-56
2023/06/13 08:47:40;;;;;;;5.90;4.17;;;26.50;24.50;;;;;;5072230;28;20438;-56
2023/06/13 08:50:11;;;;;;;7.60;4.90;;;26.50;25.00;;;;;;5072024;28;20461;-56
2023/06/13 08:52:41;;;;;;;6.13;4.97;;;26.60;24.40;;;;;;5072229;28;20921;-55
2023/06/13 08:55:11;;;;;;;7.33;5.33;;;26.60;24.90;;;;;;5072392;28;20407;-58
2023/06/13 08:57:39;;;;;;;11.90;4.67;;;26.70;25.30;;;;;;5068451;28;20963;-56
2023/06/13 09:00:09;;;;;;;6.33;4.57;;;26.80;25.70;;;;;;5070554;28;20418;-56
2023/06/13 09:02:36;;;;;;;8.53;5.30;;;26.90;25.20;;;;;;5072287;28;20453;-59
2023/06/13 09:05:03;;;;;;;6.70;4.23;;;27.10;23.40;;;;;;5072311;28;20445;-58
2023/06/13 09:07:31;;;;;;;5.30;4.37;;;27.10;22.90;;;;;;5072301;28;20431;-55
2023/06/13 09:09:58;;;;;;;6.33;4.57;;;27.20;23.60;;;;;;5071817;28;20411;-56
2023/06/13 09:12:25;;;;;;;7.07;4.53;;;27.40;24.10;;;;;;5052886;28;20474;-58
2023/06/13 09:14:52;;;;;;;5.50;4.30;;;27.50;23.60;;;;;;5052016;28;20494;-55
2023/06/13 09:17:18;;;;;;;6.33;5.33;;;27.60;24.00;;;;;;5051828;28;20766;-58
2023/06/13 09:19:45;;;;;;;7.67;5.50;;;27.70;24.30;;;;;;5067689;28;20870;-56
2023/06/13 09:22:10;;;;;;;6.83;4.43;;;27.90;23.00;;;;;;5072234;28;20815;-56
2023/06/13 09:24:36;;;;;;;4.00;3.60;;;28.00;24.50;;;;;;5072023;28;20430;-57
2023/06/13 09:27:03;;;;;;;7.43;5.10;;;28.10;24.00;;;;;;5071944;28;20427;-57
2023/06/13 09:29:36;;;;;;;6.10;4.80;;;28.30;24.20;;;;;;5071717;28;20933;-58
2023/06/13 09:32:03;;;;;;;6.97;5.03;;;28.30;23.50;;;;;;5071781;28;20825;-55
2023/06/13 09:34:29;;;;;;;8.43;4.60;;;28.30;22.20;;;;;;5071540;28;20426;-56
2023/06/13 09:36:57;;;;;;;9.20;5.70;;;28.30;22.20;;;;;;5071802;28;20771;-59
2023/06/13 09:39:23;;;;;;;6.40;5.53;;;28.30;22.50;;;;;;5071557;28;21032;-56
2023/06/13 09:41:57;;;;;;;5.73;3.97;;;28.30;22.30;;;;;;5071693;28;20790;-58
2023/06/13 09:44:24;;;;;;;5.17;4.67;;;28.30;22.10;;;;;;5071661;28;20442;-56
2023/06/13 09:46:54;;;;;;;9.40;4.10;;;28.30;22.70;;;;;;5074141;28;20422;-56
2023/06/13 09:49:20;;;;;;;5.43;4.93;;;28.40;21.40;;;;;;5075234;28;20454;-59
2023/06/13 09:51:46;;;;;;;8.10;4.40;;;28.40;22.20;;;;;;5075774;28;20406;-56
2023/06/13 09:54:15;;;;;;;4.90;4.40;;;28.30;21.80;;;;;;5075403;28;20490;-57
2023/06/13 09:56:42;;;;;;;4.57;3.97;;;28.30;22.60;;;;;;5075735;28;20487;-58
2023/06/13 09:59:16;;;;;;;4.67;4.27;;;28.20;22.90;;;;;;5070448;28;20461;-57
2023/06/13 10:01:42;;;;;;;6.43;5.27;;;28.20;23.20;;;;;;5075311;28;20421;-59
2023/06/13 10:04:09;;;;;;;7.30;4.37;;;28.10;23.90;;;;;;5075259;28;20439;-56
2023/06/13 10:06:36;;;;;;;6.53;4.83;;;28.00;23.40;;;;;;5075392;28;20410;-59
2023/06/13 10:09:02;;;;;;;5.43;4.27;;;27.90;22.50;;;;;;5075170;28;20431;-56
2023/06/13 10:11:31;;;;;;;4.03;3.60;;;27.80;23.60;;;;;;5075287;28;20489;-55
2023/06/13 10:14:09;;;;;;;6.40;4.00;;;27.70;23.60;;;;;;5075126;28;20434;-58
2023/06/13 10:16:40;;;;;;;10.47;5.60;;;27.50;23.00;;;;;;5073934;28;20506;-57
2023/06/13 10:19:08;;;;;;;5.23;4.20;;;27.50;23.00;;;;;;5070403;28;20496;-58
2023/06/13 10:21:36;;;;;;;6.50;4.30;;;27.40;23.10;;;;;;5074882;28;20414;-59
2023/06/13 10:24:02;;;;;;;5.00;4.20;;;27.30;23.90;;;;;;5075028;28;20955;-56
2023/06/13 10:26:41;;;;;;;6.70;4.07;;;27.20;23.90;;;;;;5075298;28;20752;-58
2023/06/13 10:29:26;;;;;;;7.60;4.80;;;27.10;24.00;;;;;;5074859;28;20423;-55
2023/06/13 10:32:15;;;;;;;5.00;4.57;;;27.00;24.40;;;;;;5073483;28;20418;-56
2023/06/13 10:35:12;;;;;;;5.07;4.00;;;27.10;23.90;;;;;;5074843;28;20499;-55
2023/06/13 10:38:26;;;;;;;4.40;4.00;;;27.10;23.70;;;;;;5074696;28;20450;-57
2023/06/13 10:41:23;;;;;;;7.37;5.40;;;27.10;23.40;;;;;;5072520;28;20414;-59
2023/06/13 10:44:17;;;;;;;4.57;4.10;;;27.20;24.40;;;;;;5054766;28;20418;-56
2023/06/13 10:46:44;;;;;;;4.70;4.10;;;27.40;24.70;;;;;;5054645;28;20400;-57
2023/06/13 10:49:15;;;;;;;5.30;4.80;;;27.50;24.50;;;;;;5054319;28;20518;-59
2023/06/13 10:51:45;;;;;;;9.00;5.47;;;27.70;23.70;;;;;;5054399;28;20403;-56
2023/06/13 10:54:13;;;;;;;5.90;4.70;;;27.90;24.10;;;;;;5054494;28;20404;-57
2023/06/13 10:56:42;;;;;;;6.20;5.17;;;28.00;23.50;;;;;;5054010;28;20412;-59
2023/06/13 10:59:14;;;;;;;8.90;5.17;;;28.10;23.20;;;;;;5055092;28;20455;-57
2023/06/13 11:01:41;;;;;;;6.00;5.00;;;28.20;22.60;;;;;;5074324;28;20767;-56
2023/06/13 11:04:19;;;;;;;7.13;4.43;;;28.30;21.70;;;;;;5074559;28;20487;-59
2023/06/13 11:06:49;;;;;;;7.93;5.33;;;28.50;22.40;;;;;;5074344;28;20767;-57
2023/06/13 11:09:16;;;;;;;8.03;4.93;;;28.50;22.80;;;;;;5073920;28;20497;-57
2023/06/13 11:11:48;;;;;;;5.40;4.90;;;28.50;22.90;;;;;;5073882;28;20413;-59
2023/06/13 11:14:14;;;;;;;6.57;5.90;;;28.60;22.40;;;;;;5074132;28;20406;-57
2023/06/13 11:16:43;;;;;;;7.20;6.20;;;28.60;22.30;;;;;;5069215;28;20433;-59
2023/06/13 11:19:17;;;;;;;6.03;4.90;;;28.50;22.30;;;;;;5072894;28;21015;-57
2023/06/13 11:22:04;;;;;;;5.70;4.97;;;28.40;21.70;;;;;;5073974;28;20414;-57
2023/06/13 11:24:34;;;;;;;6.10;5.50;;;28.20;22.50;;;;;;5073171;28;20429;-59
2023/06/13 11:27:03;;;;;;;6.17;5.57;;;28.10;23.00;;;;;;5073687;28;20403;-59
2023/06/13 11:29:30;;;;;;;7.70;6.53;;;28.00;23.50;;;;;;5073495;28;20418;-57
2023/06/13 11:31:56;;;;;;;7.27;6.40;;;27.90;23.10;;;;;;5072405;28;20465;-59
2023/06/13 11:34:33;;;;;;;10.60;6.20;;;28.00;23.80;;;;;;5073724;28;20454;-57
2023/06/13 11:37:12;;;;;;;6.53;5.97;;;28.10;22.70;;;;;;5073562;28;20505;-60
2023/06/13 11:39:41;;;;;;;7.00;6.30;;;28.20;23.60;;;;;;5072057;28;20454;-57
2023/06/13 11:42:08;;;;;;;6.83;6.23;;;28.30;23.20;;;;;;5073621;28;20477;-59
2023/06/13 11:44:37;;;;;;;8.40;5.80;;;28.30;22.80;;;;;;5073522;28;20468;-58
2023/06/13 11:47:04;;;;;;;7.37;6.70;;;28.30;23.00;;;;;;5073302;28;20403;-57
2023/06/13 11:49:29;;;;;;;7.93;6.63;;;28.20;23.10;;;;;;5073275;28;20411;-57
2023/06/13 11:51:55;;;;;;;8.43;7.43;;;28.20;23.00;;;;;;5073297;28;20407;-59
2023/06/13 11:54:30;;;;;;;11.13;7.10;;;28.40;24.10;;;;;;5058322;28;20177;-57
2023/06/13 11:56:56;;;;;;;8.10;7.00;;;28.50;24.00;;;;;;5053233;28;20176;-58
2023/06/13 11:59:24;;;;;;;7.73;7.03;;;28.60;23.20;;;;;;5052964;28;20897;-60
2023/06/13 12:01:52;;;;;;;8.97;7.37;;;28.70;23.30;;;;;;5053135;28;20197;-56
2023/06/13 12:04:21;;;;;;;11.40;7.87;;;28.70;23.60;;;;;;5068360;28;20431;-57
2023/06/13 12:06:47;;;;;;;8.23;7.23;;;28.80;23.10;;;;;;5072895;28;20414;-59
2023/06/13 12:09:17;;;;;;;8.20;7.40;;;28.70;23.20;;;;;;5068249;28;20815;-58
2023/06/13 12:11:43;;;;;;;7.23;6.53;;;28.70;22.00;;;;;;5072989;28;20199;-59
2023/06/13 12:14:09;;;;;;;9.83;7.63;;;28.60;22.40;;;;;;5072857;28;20906;-60
2023/06/13 12:16:37;;;;;;;8.50;6.70;;;28.50;22.40;;;;;;5072723;28;20518;-58
2023/06/13 12:19:04;;;;;;;9.80;7.33;;;28.50;22.50;;;;;;5072475;28;20258;-56
2023/06/13 12:21:36;;;;;;;7.90;6.80;;;28.50;23.50;;;;;;5071534;28;20407;-60
2023/06/13 12:24:07;;;;;;;9.33;7.30;;;28.50;22.20;;;;;;5072694;28;20425;-57
2023/06/13 12:26:40;;;;;;;9.43;7.20;;;28.50;22.60;;;;;;5072634;28;20429;-57
2023/06/13 12:29:07;;;;;;;7.87;7.10;;;28.50;21.40;;;;;;5072373;28;20431;-59
2023/06/13 12:31:41;;;;;;;7.37;5.20;;;28.40;22.00;;;;;;5072274;28;21135;-59
2023/06/13 12:34:08;;;;;;;5.93;5.33;;;28.40;22.30;;;;;;5072458;28;20411;-58
2023/06/13 12:36:41;;;;;;;6.97;5.43;;;28.40;22.40;;;;;;5072399;28;20495;-59
2023/06/13 12:39:09;;;;;;;13.63;5.93;;;28.40;21.80;;;;;;5072118;28;20980;-57
2023/06/13 12:41:37;;;;;;;6.00;5.00;;;28.30;22.00;;;;;;5072498;28;20456;-57
2023/06/13 12:44:03;;;;;;;5.67;4.67;;;28.30;21.60;;;;;;5072341;28;20903;-60
2023/06/13 12:46:29;;;;;;;10.40;5.47;;;27.60;21.00;;;;;;5072315;28;20460;-57
2023/06/13 12:48:55;;;;;;;6.83;5.80;;;28.10;20.00;;;;;;5072005;28;20496;-57
2023/06/13 12:51:28;;;;;;;5.37;4.87;;;28.10;20.90;;;;;;5072116;28;20411;-59